Time;durP1;ratioP1;P1;durP2;ratioP2;P2;SDS_P1;SDS_P2;PMS_P1;PMS_P2;Temp;Humidity;BMP_temperature;BMP_pressure;BME280_temperature;BME280_humidity;BME280_pressure;Samples;Min_cycle;Max_cycle;Signal;HPM_P1;HPM_P2
2022/09/03 00:01:00;;;;;;;24.25;12.23;;;;;;;22.46;35.80;100967.59;5067118;28;20088;-61
2022/09/03 00:03:34;;;;;;;21.83;12.40;;;;;;;22.44;35.87;100975.28;5066965;28;20076;-62
2022/09/03 00:06:10;;;;;;;27.83;12.68;;;;;;;22.43;36.05;100975.59;5067184;28;20053;-62
2022/09/03 00:08:44;;;;;;;29.48;12.10;;;;;;;22.39;35.89;100967.97;5067154;28;20041;-62
2022/09/03 00:11:17;;;;;;;23.95;11.07;;;;;;;22.37;36.03;100975.69;5067158;28;20049;-61
2022/09/03 00:13:51;;;;;;;29.58;12.93;;;;;;;22.33;36.09;100971.91;5066730;28;20067;-61
2022/09/03 00:16:23;;;;;;;25.35;12.85;;;;;;;22.30;35.99;100967.03;5066875;28;20080;-62
2022/09/03 00:18:56;;;;;;;34.80;13.75;;;;;;;22.32;36.08;100974.94;5074291;28;20045;-61
2022/09/03 00:21:36;;;;;;;24.65;12.63;;;;;;;22.28;35.93;100971.97;5086891;28;20052;-61
2022/09/03 00:24:08;;;;;;;23.85;12.73;;;;;;;22.27;36.17;100972.28;5071816;28;20087;-62
2022/09/03 00:26:47;;;;;;;27.92;12.75;;;;;;;22.24;36.00;100968.22;5067015;28;20110;-62
2022/09/03 00:29:18;;;;;;;25.98;11.77;;;;;;;22.21;35.85;100968.00;5068979;28;20087;-62
2022/09/03 00:31:50;;;;;;;23.83;11.02;;;;;;;22.20;36.30;100969.91;5077550;28;20076;-62
2022/09/03 00:34:24;;;;;;;28.77;13.25;;;;;;;22.19;35.87;100973.75;5066538;28;20092;-62
2022/09/03 00:36:52;;;;;;;25.70;12.13;;;;;;;22.18;35.82;100968.59;5066695;28;20064;-62
2022/09/03 00:39:22;;;;;;;29.08;13.73;;;;;;;22.16;35.91;100970.81;5066429;28;20087;-62
2022/09/03 00:42:06;;;;;;;28.83;13.35;;;;;;;22.14;35.80;100964.81;5066228;28;20044;-62
2022/09/03 00:45:01;;;;;;;23.75;12.15;;;;;;;22.12;36.07;100970.56;5066036;28;20056;-62
2022/09/03 00:47:41;;;;;;;27.02;12.48;;;;;;;22.09;36.02;100971.16;5066301;28;20057;-62
2022/09/03 00:50:15;;;;;;;27.05;12.93;;;;;;;22.08;35.96;100969.53;5066573;28;20049;-62
2022/09/03 00:52:51;;;;;;;26.73;12.50;;;;;;;22.04;36.20;100968.50;5066276;28;20048;-62
2022/09/03 00:55:31;;;;;;;25.92;12.52;;;;;;;22.04;36.08;100968.50;5066481;28;20076;-62
2022/09/03 00:58:13;;;;;;;22.05;10.85;;;;;;;22.01;35.99;100972.63;5065924;28;20085;-62
2022/09/03 01:00:43;;;;;;;28.38;12.77;;;;;;;22.00;36.09;100968.25;5065841;28;20057;-62
2022/09/03 01:03:23;;;;;;;21.88;10.93;;;;;;;22.00;35.98;100961.97;5065796;28;20057;-62
2022/09/03 01:06:12;;;;;;;26.35;12.07;;;;;;;21.97;36.15;100966.09;5066298;28;20116;-62
2022/09/03 01:08:56;;;;;;;26.83;12.10;;;;;;;21.92;36.03;100957.97;5065803;28;20414;-62
2022/09/03 01:11:32;;;;;;;23.92;11.55;;;;;;;21.93;36.03;100967.81;5066293;28;20052;-62
2022/09/03 01:14:09;;;;;;;21.85;11.48;;;;;;;21.94;36.07;100960.41;5065723;28;20071;-62
2022/09/03 01:16:44;;;;;;;21.20;11.63;;;;;;;21.91;36.09;100953.59;5065908;28;20076;-62
2022/09/03 01:19:34;;;;;;;27.50;12.30;;;;;;;21.90;36.25;100953.91;5065949;28;20129;-61
2022/09/03 01:22:22;;;;;;;21.27;10.68;;;;;;;21.88;36.21;100956.94;5065979;28;20052;-62
2022/09/03 01:25:14;;;;;;;27.25;11.98;;;;;;;21.87;36.17;100957.22;5065654;28;20068;-62
2022/09/03 01:27:53;;;;;;;31.38;11.50;;;;;;;21.86;36.16;100958.31;5065582;28;20045;-62
2022/09/03 01:30:22;;;;;;;21.85;11.02;;;;;;;21.84;36.08;100963.28;5065974;28;20044;-62
2022/09/03 01:32:58;;;;;;;24.20;10.60;;;;;;;21.82;36.18;100963.56;5065518;28;20075;-62
2022/09/03 01:35:33;;;;;;;26.15;10.55;;;;;;;21.81;36.18;100966.59;5065938;28;20052;-62
2022/09/03 01:38:19;;;;;;;22.70;10.55;;;;;;;21.79;36.28;100963.34;5065842;28;20049;-62
2022/09/03 01:40:55;;;;;;;23.58;10.85;;;;;;;21.77;36.29;100955.44;5065782;28;20091;-62
2022/09/03 01:43:34;;;;;;;;;;;;;;;21.75;36.38;100961.19;5068647;28;20045;-62
2022/09/03 01:46:12;;;;;;;21.13;10.32;;;;;;;21.75;36.29;100958.47;5070161;28;20011;-62
2022/09/03 01:48:49;;;;;;;21.17;10.13;;;;;;;21.71;36.11;100953.88;5069695;28;20071;-62
2022/09/03 01:51:20;;;;;;;21.42;10.48;;;;;;;21.72;36.25;100961.78;5069890;28;20075;-60
2022/09/03 01:54:20;;;;;;;20.23;10.02;;;;;;;21.71;36.25;100964.81;5081527;28;20075;-60
2022/09/03 01:57:08;;;;;;;25.23;11.23;;;;;;;21.69;36.38;100965.09;5089934;28;20050;-60
2022/09/03 02:00:01;;;;;;;17.95;9.48;;;;;;;21.68;36.34;100954.47;5080834;28;20109;-61
2022/09/03 02:02:31;;;;;;;18.50;9.52;;;;;;;21.66;36.39;100959.41;5069314;28;20079;-61
2022/09/03 02:05:01;;;;;;;19.83;9.57;;;;;;;21.64;36.34;100956.97;5069454;28;20060;-62
2022/09/03 02:07:33;;;;;;;18.10;8.82;;;;;;;21.62;36.43;100948.25;5069356;28;20053;-61
2022/09/03 02:10:02;;;;;;;21.02;9.90;;;;;;;21.60;36.32;100955.09;5069371;28;20529;-62
2022/09/03 02:12:33;;;;;;;19.02;9.02;;;;;;;21.58;36.25;100955.41;5068866;28;20079;-61
2022/09/03 02:15:03;;;;;;;16.13;8.50;;;;;;;21.56;36.32;100957.63;5069126;28;20076;-61
2022/09/03 02:17:34;;;;;;;21.35;9.13;;;;;;;21.54;36.26;100948.06;5069145;28;20068;-61
2022/09/03 02:20:06;;;;;;;20.40;10.07;;;;;;;21.53;36.39;100957.38;5069096;28;20395;-61
2022/09/03 02:22:34;;;;;;;14.00;7.38;;;;;;;21.51;36.41;100951.41;5069150;28;20052;-61
2022/09/03 02:25:02;;;;;;;17.48;7.95;;;;;;;21.49;36.41;100945.41;5068816;28;20044;-61
2022/09/03 02:27:30;;;;;;;16.50;7.90;;;;;;;21.48;36.49;100941.84;5068842;28;20049;-62
2022/09/03 02:29:59;;;;;;;17.00;8.27;;;;;;;21.45;36.59;100953.38;5069061;28;20167;-61
2022/09/03 02:32:28;;;;;;;17.55;7.57;;;;;;;21.46;36.54;100959.66;5068914;28;20053;-60
2022/09/03 02:34:57;;;;;;;15.52;7.28;;;;;;;21.44;36.54;100957.22;5068319;28;20040;-61
2022/09/03 02:37:25;;;;;;;16.17;7.80;;;;;;;21.42;36.45;100954.78;5069059;28;20049;-60
2022/09/03 02:39:53;;;;;;;15.23;7.05;;;;;;;21.41;36.45;100952.31;5069089;28;20052;-60
2022/09/03 02:42:21;;;;;;;13.57;6.55;;;;;;;21.40;36.43;100953.44;5068523;28;20149;-60
2022/09/03 02:44:53;;;;;;;14.82;6.47;;;;;;;21.38;36.63;100952.91;5068129;28;20077;-61
2022/09/03 02:47:23;;;;;;;14.07;5.72;;;;;;;21.36;36.46;100952.38;5068309;28;20045;-61
2022/09/03 02:49:51;;;;;;;13.88;6.35;;;;;;;21.34;36.59;100951.88;5068640;28;20053;-61
2022/09/03 02:52:20;;;;;;;14.43;6.80;;;;;;;21.33;36.48;100953.78;5067484;28;20478;-60
2022/09/03 02:54:47;;;;;;;12.20;5.47;;;;;;;21.31;36.58;100950.53;5068526;28;20073;-61
2022/09/03 02:57:17;;;;;;;14.38;6.40;;;;;;;21.25;36.57;100943.50;5068198;28;20582;-60
2022/09/03 02:59:54;;;;;;;15.52;6.45;;;;;;;21.28;36.56;100951.09;5068684;28;20049;-61
2022/09/03 03:02:22;;;;;;;9.23;6.15;;;;;;;21.27;36.53;100954.13;5068148;28;20057;-61
2022/09/03 03:04:50;;;;;;;11.57;4.95;;;;;;;21.26;36.57;100958.78;5068027;28;20098;-61
2022/09/03 03:07:18;;;;;;;13.13;5.28;;;;;;;21.25;36.58;100959.06;5068468;28;20056;-61
2022/09/03 03:09:47;;;;;;;11.80;5.60;;;;;;;21.13;36.66;100946.59;5068319;28;20049;-61
2022/09/03 03:12:16;;;;;;;7.75;5.40;;;;;;;21.21;36.63;100960.72;5068025;28;20056;-61
2022/09/03 03:14:43;;;;;;;11.65;5.13;;;;;;;21.21;36.65;100963.47;5067957;28;20044;-61
2022/09/03 03:17:11;;;;;;;9.23;5.22;;;;;;;21.19;36.72;100962.94;5067980;28;20049;-61
2022/09/03 03:19:39;;;;;;;10.65;5.43;;;;;;;21.18;36.75;100959.38;5068070;28;20060;-61
2022/09/03 03:22:06;;;;;;;7.63;4.80;;;;;;;21.16;36.73;100955.31;5068029;28;20049;-62
2022/09/03 03:24:35;;;;;;;12.93;5.50;;;;;;;21.14;36.78;100947.41;5067793;28;20073;-60
2022/09/03 03:27:07;;;;;;;10.23;5.10;;;;;;;21.13;36.83;100953.97;5068065;28;20081;-61
2022/09/03 03:29:35;;;;;;;8.73;4.63;;;;;;;21.12;36.82;100950.44;5067937;28;20061;-60
2022/09/03 03:32:03;;;;;;;11.20;5.13;;;;;;;21.11;36.84;100956.19;5067693;28;20087;-61
2022/09/03 03:34:30;;;;;;;10.30;5.60;;;;;;;21.10;36.73;100949.09;5067514;28;20056;-61
2022/09/03 03:36:58;;;;;;;9.82;4.57;;;;;;;21.08;36.79;100952.13;5067933;28;20077;-61
2022/09/03 03:39:26;;;;;;;9.63;4.28;;;;;;;21.07;36.82;100949.66;5067662;28;20087;-61
2022/09/03 03:41:55;;;;;;;10.00;4.47;;;;;;;21.04;36.76;100956.53;5067322;28;20149;-61
2022/09/03 03:44:25;;;;;;;11.90;4.95;;;;;;;21.04;36.75;100947.50;5066929;28;20084;-61
2022/09/03 03:46:52;;;;;;;10.85;4.13;;;;;;;21.01;36.90;100951.63;5067051;28;20418;-61
2022/09/03 03:49:20;;;;;;;8.73;4.13;;;;;;;20.99;36.93;100955.75;5067608;28;20048;-61
2022/09/03 03:51:48;;;;;;;9.32;4.45;;;;;;;20.98;36.84;100954.13;5067433;28;20077;-61
2022/09/03 03:54:15;;;;;;;8.77;4.15;;;;;;;20.98;36.86;100954.13;5066825;28;20041;-62
2022/09/03 03:56:44;;;;;;;8.77;4.20;;;;;;;20.96;36.81;100948.97;5066913;28;20045;-62
2022/09/03 03:59:22;;;;;;;6.70;3.47;;;;;;;20.96;36.93;100956.34;5067073;28;20059;-61
2022/09/03 04:01:51;;;;;;;10.18;3.88;;;;;;;20.93;36.84;100959.66;5067113;28;20053;-61
2022/09/03 04:04:18;;;;;;;8.18;4.30;;;;;;;20.91;36.81;100948.19;5066848;28;20088;-61
2022/09/03 04:06:46;;;;;;;11.95;4.57;;;;;;;20.82;36.88;100937.06;5067000;28;20044;-61
2022/09/03 04:09:14;;;;;;;9.00;3.88;;;;;;;20.80;36.83;100931.13;5067066;28;20076;-61
2022/09/03 04:11:42;;;;;;;10.07;3.42;;;;;;;20.88;36.93;100948.78;5067306;28;20052;-61
2022/09/03 04:14:09;;;;;;;9.43;3.90;;;;;;;20.86;36.83;100953.69;5071109;28;20521;-62
2022/09/03 04:16:37;;;;;;;7.95;3.63;;;;;;;20.84;37.02;100950.44;5086741;28;20494;-61
2022/09/03 04:19:06;;;;;;;7.30;3.80;;;;;;;20.83;37.02;100957.00;5087201;28;20070;-61
2022/09/03 04:21:35;;;;;;;11.05;3.95;;;;;;;20.82;36.90;100956.19;5086949;28;20057;-62
2022/09/03 04:24:05;;;;;;;7.18;3.70;;;;;;;20.80;36.91;100951.03;5068996;28;20068;-61
2022/09/03 04:26:33;;;;;;;8.38;4.03;;;;;;;20.78;37.08;100952.44;5067058;28;20127;-61
2022/09/03 04:29:04;;;;;;;7.13;3.80;;;;;;;20.77;36.94;100946.16;5066523;28;20084;-61
2022/09/03 04:31:32;;;;;;;8.05;3.45;;;;;;;20.76;36.97;100941.00;5066823;28;20430;-61
2022/09/03 04:34:00;;;;;;;6.63;2.83;;;;;;;20.75;37.03;100942.09;5066456;28;20065;-61
2022/09/03 04:36:30;;;;;;;7.05;3.05;;;;;;;20.73;37.19;100949.75;5066621;28;20049;-61
2022/09/03 04:39:00;;;;;;;9.20;3.30;;;;;;;20.71;37.11;100944.59;5066669;28;20060;-61
2022/09/03 04:41:30;;;;;;;10.15;2.75;;;;;;;20.69;37.06;100946.78;5066573;28;20048;-61
2022/09/03 04:44:00;;;;;;;4.50;2.65;;;;;;;20.58;37.13;100931.59;5065821;28;20041;-61
2022/09/03 04:46:32;;;;;;;5.90;3.20;;;;;;;20.69;37.15;100951.44;5066037;28;20079;-61
2022/09/03 04:49:01;;;;;;;4.63;2.42;;;;;;;20.66;37.12;100941.91;5065881;28;20060;-62
2022/09/03 04:51:30;;;;;;;5.63;2.88;;;;;;;20.66;37.18;100949.28;5081108;28;20076;-61
2022/09/03 04:54:00;;;;;;;6.80;3.90;;;;;;;20.60;37.30;100945.78;5085902;28;20111;-62
2022/09/03 04:56:29;;;;;;;8.00;3.40;;;;;;;20.63;37.21;100947.13;5085612;28;20052;-62
2022/09/03 04:58:59;;;;;;;8.35;3.60;;;;;;;20.62;37.25;100951.75;5083736;28;20060;-62
2022/09/03 05:01:30;;;;;;;7.53;3.22;;;;;;;20.61;37.37;100949.31;5066188;28;20060;-61
2022/09/03 05:03:59;;;;;;;6.88;3.17;;;;;;;20.55;37.14;100943.09;5066164;28;20077;-62
2022/09/03 05:06:28;;;;;;;6.43;3.45;;;;;;;20.53;37.39;100944.47;5066238;28;20079;-62
2022/09/03 05:08:58;;;;;;;11.52;3.80;;;;;;;20.55;37.36;100948.53;5066091;28;20084;-60
2022/09/03 05:11:27;;;;;;;5.38;3.13;;;;;;;20.54;37.36;100948.81;5066479;28;20079;-61
2022/09/03 05:13:57;;;;;;;7.32;3.17;;;;;;;20.51;37.41;100947.47;5083185;28;20091;-60
2022/09/03 05:16:27;;;;;;;8.52;3.97;;;;;;;20.53;37.47;100947.19;5085485;28;20068;-60
2022/09/03 05:18:57;;;;;;;9.45;3.47;;;;;;;20.52;37.49;100951.03;5085924;28;20068;-60
2022/09/03 05:21:26;;;;;;;5.68;3.45;;;;;;;20.48;37.38;100941.78;5076413;28;20080;-60
2022/09/03 05:23:54;;;;;;;8.07;4.28;;;;;;;20.49;37.50;100951.59;5065620;28;20083;-60
2022/09/03 05:26:25;;;;;;;10.15;3.97;;;;;;;20.41;37.60;100933.91;5071960;28;20055;-60
2022/09/03 05:28:55;;;;;;;9.63;4.38;;;;;;;20.39;37.55;100936.13;5085594;28;20083;-60
2022/09/03 05:31:25;;;;;;;8.45;4.15;;;;;;;20.43;37.50;100945.38;5079837;28;20055;-60
2022/09/03 05:33:56;;;;;;;10.23;4.25;;;;;;;20.41;37.67;100936.66;5065678;28;20048;-60
2022/09/03 05:36:26;;;;;;;8.77;4.05;;;;;;;20.40;37.55;100940.47;5065878;28;20056;-60
2022/09/03 05:38:54;;;;;;;13.90;4.95;;;;;;;20.42;37.74;100947.28;5065511;28;20088;-60
2022/09/03 05:41:23;;;;;;;8.30;4.70;;;;;;;20.42;37.59;100946.47;5075253;28;20048;-60
2022/09/03 05:43:54;;;;;;;7.70;3.90;;;;;;;20.41;37.65;100948.38;5085080;28;20048;-60
2022/09/03 05:46:30;;;;;;;6.78;4.10;;;;;;;20.42;37.60;100954.66;5084377;28;20048;-60
2022/09/03 05:48:59;;;;;;;8.65;5.10;;;;;;;20.37;37.74;100947.28;5065646;28;20059;-61
2022/09/03 05:51:26;;;;;;;10.90;4.35;;;;;;;20.38;37.79;100956.28;5065405;28;20075;-61
2022/09/03 05:53:55;;;;;;;10.05;4.32;;;;;;;20.37;37.73;100954.66;5065098;28;20073;-61
2022/09/03 05:56:26;;;;;;;8.35;4.20;;;;;;;20.33;37.74;100951.69;5065412;28;20053;-61
2022/09/03 05:58:56;;;;;;;7.68;3.78;;;;;;;20.34;37.93;100958.78;5065149;28;20053;-61
2022/09/03 06:01:25;;;;;;;8.10;3.65;;;;;;;20.32;37.79;100952.78;5065396;28;20076;-61
2022/09/03 06:03:54;;;;;;;9.57;4.10;;;;;;;20.32;37.88;100951.97;5065250;28;20058;-61
2022/09/03 06:06:24;;;;;;;8.57;4.38;;;;;;;20.33;37.82;100950.88;5080505;28;20080;-60
2022/09/03 06:08:53;;;;;;;6.05;3.70;;;;;;;20.31;37.86;100942.16;5085284;28;20053;-61
2022/09/03 06:11:25;;;;;;;10.65;4.50;;;;;;;20.32;37.88;100949.25;5079410;28;20065;-60
2022/09/03 06:13:55;;;;;;;8.70;3.72;;;;;;;20.31;38.09;100953.06;5064904;28;20087;-60
2022/09/03 06:16:24;;;;;;;9.30;4.10;;;;;;;20.29;37.87;100953.34;5065375;28;20067;-60
2022/09/03 06:18:58;;;;;;;10.63;4.60;;;;;;;20.30;38.09;100959.63;5065428;28;20133;-60
2022/09/03 06:21:26;;;;;;;9.27;4.13;;;;;;;20.28;38.16;100957.19;5065506;28;20075;-60
2022/09/03 06:23:56;;;;;;;10.07;4.30;;;;;;;20.27;38.27;100957.47;5064937;28;20069;-60
2022/09/03 06:26:27;;;;;;;9.20;4.10;;;;;;;20.28;38.28;100951.72;5065378;28;20048;-61
2022/09/03 06:28:58;;;;;;;6.60;3.95;;;;;;;20.26;38.17;100953.91;5066932;28;20045;-61
2022/09/03 06:31:26;;;;;;;8.52;3.92;;;;;;;20.28;38.28;100957.19;5069195;28;20045;-61
2022/09/03 06:33:54;;;;;;;9.02;3.35;;;;;;;20.27;38.22;100955.56;5068683;28;20051;-61
2022/09/03 06:36:29;;;;;;;4.95;3.20;;;;;;;20.26;38.28;100962.09;5069079;28;20148;-61
2022/09/03 06:38:57;;;;;;;9.68;3.30;;;;;;;20.22;38.46;100952.84;5068912;28;20060;-61
2022/09/03 06:41:31;;;;;;;6.65;3.55;;;;;;;20.26;38.41;100959.38;5068935;28;20041;-61
2022/09/03 06:44:02;;;;;;;5.97;3.45;;;;;;;20.29;38.33;100958.81;5068264;28;20140;-61
2022/09/03 06:46:32;;;;;;;5.57;2.97;;;;;;;20.32;38.31;100963.69;5068736;28;20045;-60
2022/09/03 06:48:59;;;;;;;5.28;2.95;;;;;;;20.37;38.42;100965.59;5068622;28;20057;-61
2022/09/03 06:51:29;;;;;;;5.78;2.97;;;;;;;20.41;38.43;100961.22;5068796;28;20045;-60
2022/09/03 06:54:00;;;;;;;5.70;2.67;;;;;;;20.42;38.30;100963.66;5068392;28;20076;-60
2022/09/03 06:56:28;;;;;;;5.00;2.67;;;;;;;20.44;38.40;100961.47;5075270;28;20049;-61
2022/09/03 06:58:57;;;;;;;5.65;2.88;;;;;;;20.44;38.50;100964.19;5088152;28;20056;-61
2022/09/03 07:01:30;;;;;;;5.15;2.58;;;;;;;20.44;38.28;100961.47;5088416;28;20056;-60
2022/09/03 07:04:00;;;;;;;6.00;2.97;;;;;;;20.43;38.51;100956.28;5080716;28;20049;-61
2022/09/03 07:06:31;;;;;;;4.70;2.33;;;;;;;20.43;38.50;100964.47;5068342;28;20051;-61
2022/09/03 07:08:59;;;;;;;3.78;2.30;;;;;;;20.43;38.64;100959.03;5068190;28;20057;-61
2022/09/03 07:11:32;;;;;;;6.65;2.20;;;;;;;20.42;38.62;100962.84;5068308;28;20049;-61
2022/09/03 07:14:00;;;;;;;4.07;2.22;;;;;;;20.41;38.68;100966.69;5067515;28;20072;-61
2022/09/03 07:16:30;;;;;;;4.45;2.33;;;;;;;20.41;38.72;100972.94;5068132;28;20045;-61
2022/09/03 07:18:59;;;;;;;3.65;2.10;;;;;;;20.43;38.68;100961.75;5068027;28;20049;-61
2022/09/03 07:21:29;;;;;;;10.68;2.45;;;;;;;20.42;38.75;100960.13;5068193;28;20079;-61
2022/09/03 07:23:57;;;;;;;5.13;1.83;;;;;;;20.44;38.66;100969.66;5073369;28;20458;-61
2022/09/03 07:26:26;;;;;;;4.57;2.15;;;;;;;20.46;38.63;100966.63;5087998;28;20398;-61
2022/09/03 07:28:55;;;;;;;3.60;2.05;;;;;;;20.45;38.63;100960.34;5087680;28;20061;-61
2022/09/03 07:31:24;;;;;;;4.47;1.95;;;;;;;20.49;38.90;100965.25;5088195;28;20048;-61
2022/09/03 07:33:55;;;;;;;2.15;1.60;;;;;;;20.50;38.78;100966.88;5079764;28;20072;-61
2022/09/03 07:36:25;;;;;;;5.50;1.58;;;;;;;20.51;38.66;100958.41;5067896;28;20049;-61
2022/09/03 07:38:56;;;;;;;3.60;2.03;;;;;;;20.52;38.82;100964.69;5067713;28;20056;-61
2022/09/03 07:41:25;;;;;;;5.55;2.45;;;;;;;20.52;38.83;100956.50;5066963;28;20113;-60
2022/09/03 07:43:56;;;;;;;4.65;2.20;;;;;;;20.53;38.84;100960.84;5067274;28;20049;-61
2022/09/03 07:46:26;;;;;;;2.22;1.52;;;;;;;20.52;38.87;100968.22;5067187;28;20552;-61
2022/09/03 07:48:57;;;;;;;3.38;1.60;;;;;;;20.52;38.94;100972.88;5067537;28;20052;-61
2022/09/03 07:51:27;;;;;;;2.83;1.52;;;;;;;20.51;38.97;100966.59;5067214;28;20052;-60
2022/09/03 07:53:57;;;;;;;2.90;1.77;;;;;;;20.49;39.06;100978.91;5067194;28;20049;-61
2022/09/03 07:56:25;;;;;;;4.15;2.33;;;;;;;20.50;39.09;100980.53;5067442;28;20052;-61
2022/09/03 07:58:54;;;;;;;3.38;1.70;;;;;;;20.50;39.11;100977.81;5066535;28;20049;-61
2022/09/03 08:01:23;;;;;;;5.95;2.22;;;;;;;20.49;39.23;100978.91;5067221;28;20060;-61
2022/09/03 08:03:53;;;;;;;4.63;1.48;;;;;;;20.50;39.40;100977.81;5067164;28;20126;-61
2022/09/03 08:06:24;;;;;;;3.63;1.95;;;;;;;20.50;39.36;100978.63;5067211;28;20052;-60
2022/09/03 08:08:55;;;;;;;2.92;1.73;;;;;;;20.49;39.44;100985.19;5065613;28;20080;-60
2022/09/03 08:11:30;;;;;;;3.35;2.13;;;;;;;20.52;39.46;100975.59;5068486;28;20041;-60
2022/09/03 08:14:01;;;;;;;3.30;1.45;;;;;;;20.52;39.41;100981.88;5066289;28;20052;-60
2022/09/03 08:16:30;;;;;;;2.17;1.55;;;;;;;20.53;39.42;100985.44;5066836;28;20076;-60
2022/09/03 08:18:59;;;;;;;3.78;1.85;;;;;;;20.53;39.50;100986.25;5066894;28;20135;-60
2022/09/03 08:21:28;;;;;;;2.47;1.50;;;;;;;20.53;39.48;100978.06;5086436;28;20068;-60
2022/09/03 08:24:01;;;;;;;5.25;2.00;;;;;;;20.56;39.58;100982.13;5067170;28;20084;-60
2022/09/03 08:26:30;;;;;;;3.67;1.50;;;;;;;20.58;39.67;100988.94;5066875;28;20048;-60
2022/09/03 08:28:58;;;;;;;4.43;1.40;;;;;;;20.59;39.75;100987.03;5066350;28;20084;-61
2022/09/03 08:31:27;;;;;;;3.05;1.38;;;;;;;20.60;39.74;100991.38;5066435;28;20056;-61
2022/09/03 08:33:57;;;;;;;5.03;1.40;;;;;;;20.61;39.70;100993.81;5066037;28;20135;-61
2022/09/03 08:36:26;;;;;;;4.35;1.35;;;;;;;20.61;39.89;100993.81;5066486;28;20075;-61
2022/09/03 08:38:57;;;;;;;3.47;1.30;;;;;;;20.63;39.77;101002.56;5066336;28;20077;-60
2022/09/03 08:41:37;;;;;;;4.15;1.63;;;;;;;20.64;39.88;100997.91;5066488;28;20056;-62
2022/09/03 08:44:23;;;;;;;3.13;1.40;;;;;;;20.65;40.12;101000.34;5065433;28;20081;-62
2022/09/03 08:46:55;;;;;;;4.43;1.42;;;;;;;20.66;40.18;100990.25;5066025;28;20072;-62
2022/09/03 08:49:28;;;;;;;2.15;1.60;;;;;;;20.68;40.21;100991.59;5065635;28;20052;-62
2022/09/03 08:52:02;;;;;;;4.25;1.30;;;;;;;20.70;40.32;100999.50;5066360;28;20049;-61
2022/09/03 08:54:32;;;;;;;5.95;1.70;;;;;;;20.71;40.34;100988.28;5066056;28;20084;-62
2022/09/03 08:57:02;;;;;;;3.05;1.42;;;;;;;20.72;40.30;100989.91;5065962;28;20475;-62
2022/09/03 08:59:31;;;;;;;5.00;1.45;;;;;;;20.75;40.58;100985.78;5065912;28;20060;-62
2022/09/03 09:02:18;;;;;;;5.70;1.20;;;;;;;20.77;40.48;100991.78;5066053;28;20116;-62
2022/09/03 09:04:57;;;;;;;2.58;1.42;;;;;;;20.78;40.88;100987.94;5065601;28;20044;-61
2022/09/03 09:07:31;;;;;;;2.90;1.50;;;;;;;20.80;40.99;100992.00;5066075;28;20040;-62
2022/09/03 09:10:09;;;;;;;3.10;1.50;;;;;;;20.85;40.96;100995.78;5066070;28;20080;-61
2022/09/03 09:12:47;;;;;;;2.75;1.50;;;;;;;20.86;40.77;100992.78;5065369;28;20088;-62
2022/09/03 09:15:26;;;;;;;3.42;1.77;;;;;;;20.88;40.82;100997.94;5065670;28;20091;-61
2022/09/03 09:18:06;;;;;;;4.93;1.35;;;;;;;20.90;40.82;100993.81;5065617;28;20048;-61
2022/09/03 09:20:41;;;;;;;2.92;1.23;;;;;;;20.93;40.91;100986.97;5065755;28;20091;-62
2022/09/03 09:23:14;;;;;;;8.93;1.73;;;;;;;20.94;40.79;100989.41;5065690;28;20053;-61
2022/09/03 09:25:48;;;;;;;4.90;1.40;;;;;;;20.95;41.17;100984.75;5065747;28;20083;-62
2022/09/03 09:28:18;;;;;;;2.65;1.58;;;;;;;20.99;40.99;100991.28;5065269;28;20045;-61
2022/09/03 09:30:49;;;;;;;2.17;1.33;;;;;;;21.02;41.00;100990.72;5065615;28;20049;-61
2022/09/03 09:33:19;;;;;;;4.18;1.40;;;;;;;21.02;41.05;100977.84;5065917;28;20075;-61
2022/09/03 09:35:47;;;;;;;4.57;1.45;;;;;;;21.08;41.21;100989.56;5065601;28;20072;-61
2022/09/03 09:38:16;;;;;;;3.08;1.45;;;;;;;21.10;41.14;100990.91;5065504;28;20075;-61
2022/09/03 09:40:45;;;;;;;3.65;1.58;;;;;;;21.12;41.09;100985.97;5065684;28;20063;-61
2022/09/03 09:43:14;;;;;;;3.42;1.40;;;;;;;21.16;41.27;100983.47;5065406;28;20049;-61
2022/09/03 09:45:44;;;;;;;1.60;1.27;;;;;;;21.07;41.28;100971.53;5065522;28;20057;-61
2022/09/03 09:48:25;;;;;;;2.80;1.30;;;;;;;21.23;41.35;100983.97;5065360;28;20127;-61
2022/09/03 09:51:04;;;;;;;1.25;1.00;;;;;;;21.23;41.38;100986.69;5065598;28;20079;-61
2022/09/03 09:53:31;;;;;;;3.17;1.30;;;;;;;21.30;41.24;100997.28;5065616;28;20489;-61
2022/09/03 09:56:02;;;;;;;5.18;1.50;;;;;;;21.36;41.37;100993.41;5065197;28;20096;-61
2022/09/03 09:58:31;;;;;;;3.25;1.50;;;;;;;21.37;41.02;100995.03;5065121;28;20099;-61
2022/09/03 10:01:03;;;;;;;3.53;1.60;;;;;;;21.40;41.08;100995.25;5065167;28;20086;-61
2022/09/03 10:03:34;;;;;;;2.17;1.20;;;;;;;21.36;41.03;100980.53;5066977;28;20045;-61
2022/09/03 10:08:48;;;;;;;3.38;1.30;;;;;;;21.48;41.10;100980.13;5068966;28;20041;-61
2022/09/03 10:11:20;;;;;;;4.15;1.40;;;;;;;21.51;41.15;100982.28;5069523;28;20451;-61
2022/09/03 10:13:49;;;;;;;3.70;1.38;;;;;;;21.55;41.12;100988.00;5068890;28;20056;-61
2022/09/03 10:16:26;;;;;;;2.83;1.55;;;;;;;21.60;41.32;100977.00;5069047;28;20072;-62
2022/09/03 10:19:05;;;;;;;3.03;1.35;;;;;;;21.64;41.35;100986.25;5069084;28;20061;-61
2022/09/03 10:21:39;;;;;;;3.95;1.52;;;;;;;21.69;41.36;100980.72;5069314;28;20051;-62
2022/09/03 10:24:29;;;;;;;2.92;1.42;;;;;;;21.73;41.30;100985.31;5068977;28;20049;-62
2022/09/03 10:26:58;;;;;;;1.77;1.23;;;;;;;21.76;41.12;100970.22;5068977;28;20071;-62
2022/09/03 10:29:29;;;;;;;5.40;1.70;;;;;;;21.79;41.07;100979.75;5068492;28;20076;-62
2022/09/03 10:32:08;;;;;;;2.25;1.40;;;;;;;21.81;41.15;100967.41;5069133;28;20056;-62
2022/09/03 10:34:47;;;;;;;2.85;1.33;;;;;;;21.87;41.22;100976.38;5075946;28;20084;-61
2022/09/03 10:37:23;;;;;;;3.20;1.50;;;;;;;21.95;41.84;100976.53;5089005;28;20056;-62
2022/09/03 10:40:11;;;;;;;4.22;1.58;;;;;;;22.02;41.66;100976.19;5088836;28;20083;-62
2022/09/03 10:42:46;;;;;;;3.45;1.30;;;;;;;22.08;41.59;100973.09;5081915;28;20517;-61
2022/09/03 10:45:21;;;;;;;2.92;1.67;;;;;;;22.15;41.91;100966.44;5068612;28;20064;-62
2022/09/03 10:48:07;;;;;;;4.50;1.50;;;;;;;22.22;41.51;100967.69;5068517;28;20048;-62
2022/09/03 10:50:44;;;;;;;1.88;1.45;;;;;;;22.27;41.51;100973.09;5068719;28;20087;-61
2022/09/03 10:53:24;;;;;;;2.90;1.63;;;;;;;22.32;41.58;100973.00;5079926;28;20080;-62
2022/09/03 10:56:00;;;;;;;3.15;1.65;;;;;;;22.37;41.60;100980.34;5069621;28;20144;-62
2022/09/03 10:58:54;;;;;;;3.13;1.38;;;;;;;22.46;41.56;100972.25;5069770;28;20083;-61
2022/09/03 11:01:28;;;;;;;2.50;1.50;;;;;;;22.48;41.51;100970.84;5088441;28;20068;-62
2022/09/03 11:04:13;;;;;;;2.88;1.38;;;;;;;22.56;42.08;100967.41;5088354;28;20053;-62
2022/09/03 11:06:48;;;;;;;3.15;2.00;;;;;;;22.64;41.84;100972.19;5088392;28;20075;-62
2022/09/03 11:09:21;;;;;;;2.90;1.93;;;;;;;22.71;41.56;100963.59;5073699;28;20052;-62
2022/09/03 11:11:53;;;;;;;2.45;1.63;;;;;;;22.79;41.77;100973.91;5068304;28;20502;-62
2022/09/03 11:14:33;;;;;;;2.97;1.40;;;;;;;22.85;41.79;100967.22;5066904;28;20079;-62
2022/09/03 11:17:05;;;;;;;2.25;1.30;;;;;;;22.90;41.79;100964.38;5068219;28;20049;-62
2022/09/03 11:19:36;;;;;;;2.63;1.50;;;;;;;22.97;41.86;100964.00;5068160;28;20414;-62
2022/09/03 11:22:07;;;;;;;2.33;1.40;;;;;;;23.03;42.22;100966.34;5070566;28;20076;-60
2022/09/03 11:24:39;;;;;;;2.25;1.33;;;;;;;23.07;42.13;100960.25;5087917;28;20521;-60
2022/09/03 11:27:22;;;;;;;2.42;1.20;;;;;;;23.02;42.06;100942.78;5084821;28;20049;-61
2022/09/03 11:29:59;;;;;;;2.15;1.35;;;;;;;23.19;41.73;100964.13;5067698;28;20045;-60
2022/09/03 11:32:41;;;;;;;2.78;1.20;;;;;;;23.26;42.18;100959.06;5081913;28;20056;-60
2022/09/03 11:35:14;;;;;;;3.63;1.17;;;;;;;23.33;41.95;100955.91;5087757;28;20051;-60
2022/09/03 11:37:52;;;;;;;2.17;1.20;;;;;;;23.37;42.03;100944.03;5087958;28;20063;-61
2022/09/03 11:40:25;;;;;;;4.32;1.30;;;;;;;23.42;41.67;100953.25;5083992;28;20045;-61
2022/09/03 11:42:53;;;;;;;1.75;1.15;;;;;;;23.45;41.92;100949.91;5067518;28;20049;-61
2022/09/03 11:45:34;;;;;;;5.65;1.50;;;;;;;23.49;41.52;100949.00;5067544;28;20084;-61
2022/09/03 11:48:02;;;;;;;2.97;1.27;;;;;;;23.52;41.98;100945.63;5067540;28;20085;-61